Aviation Digital Data Service (ADDS)

Output produced by METARs form (0030 UTC 26 June 2019)
found at http://aviationweather.gov/metar/data/
 
KMLU 252320Z 2600/2624 20010KT P6SM BKN250 
     FM260100 VRB03KT P6SM BKN250 
     FM261600 19006KT P6SM BKN250